Time;durP1;ratioP1;P1;durP2;ratioP2;P2;SDS_P1;SDS_P2;PMS_P1;PMS_P2;Temp;Humidity;BMP_temperature;BMP_pressure;BME280_temperature;BME280_humidity;BME280_pressure;Samples;Min_cycle;Max_cycle;Signal;HPM_P1;HPM_P2
2023/05/07 00:02:25;;;;;;;5.30;3.80;;;;;;;8.41;43.53;100603.23;106530;1258;69599;-80
2023/05/07 00:04:53;;;;;;;6.10;3.40;;;;;;;8.40;43.69;100602.63;108225;1257;73054;-81
2023/05/07 00:07:19;;;;;;;7.20;3.50;;;;;;;8.39;43.55;100598.35;107368;1256;59710;-81
2023/05/07 00:09:46;;;;;;;5.40;3.20;;;;;;;8.36;43.70;100600.31;106802;1255;61658;-79
2023/05/07 00:12:13;;;;;;;6.00;3.50;;;;;;;8.33;43.81;100599.88;108084;1257;71698;-81
2023/05/07 00:14:40;;;;;;;7.10;3.50;;;;;;;8.31;43.60;100597.93;108234;1255;71301;-81
2023/05/07 00:17:07;;;;;;;6.10;3.30;;;;;;;8.29;43.55;100590.36;106097;1257;73713;-82
2023/05/07 00:19:34;;;;;;;8.40;4.20;;;;;;;8.28;43.54;100588.34;106163;1256;60921;-82
2023/05/07 00:22:01;;;;;;;5.20;3.20;;;;;;;8.25;43.52;100586.30;106039;1260;60576;-82
2023/05/07 00:24:28;;;;;;;6.80;3.20;;;;;;;8.21;43.49;100582.41;106298;1256;74552;-81
2023/05/07 00:26:55;;;;;;;7.60;3.00;;;;;;;8.16;43.56;100583.70;106506;1260;71040;-81
2023/05/07 00:29:22;;;;;;;5.50;3.30;;;;;;;8.12;43.56;100590.59;105832;1260;73433;-83
2023/05/07 00:31:49;;;;;;;5.20;3.40;;;;;;;8.09;43.63;100590.46;105766;1264;60645;-82
2023/05/07 00:34:17;;;;;;;6.60;3.40;;;;;;;8.06;43.85;100590.67;105796;1261;61169;-80
2023/05/07 00:36:44;;;;;;;6.50;3.50;;;;;;;8.05;43.96;100592.73;105799;1258;74174;-80
2023/05/07 00:39:11;;;;;;;7.90;3.90;;;;;;;8.04;44.12;100592.30;105820;1256;71648;-80
2023/05/07 00:41:38;;;;;;;4.80;3.70;;;;;;;8.02;44.00;100593.34;105956;1260;72268;-82
2023/05/07 00:44:05;;;;;;;5.90;3.70;;;;;;;7.97;44.05;100594.99;105864;1257;60575;-83
2023/05/07 00:46:32;;;;;;;7.30;3.40;;;;;;;7.95;44.07;100601.36;105989;1257;60016;-81
2023/05/07 00:48:59;;;;;;;7.60;3.50;;;;;;;7.92;44.12;100594.07;105832;1257;75793;-80
2023/05/07 00:51:27;;;;;;;6.50;3.70;;;;;;;7.90;44.18;100595.80;105740;1263;71772;-82
2023/05/07 00:53:54;;;;;;;5.40;3.40;;;;;;;7.89;44.33;100599.06;106041;1260;71490;-79
2023/05/07 00:56:22;;;;;;;5.60;3.70;;;;;;;7.87;44.27;100598.13;106607;1255;60509;-81
2023/05/07 00:58:49;;;;;;;5.70;3.30;;;;;;;7.86;44.46;100603.52;106604;1257;62513;-79
2023/05/07 01:01:16;;;;;;;7.30;4.20;;;;;;;7.85;44.60;100605.23;105686;1260;73536;-77
2023/05/07 01:03:43;;;;;;;6.60;3.60;;;;;;;7.84;44.58;100608.99;105562;1253;72394;-81
2023/05/07 01:06:12;;;;;;;6.40;4.00;;;;;;;7.83;44.52;100606.27;105832;1256;74749;-79
2023/05/07 01:08:40;;;;;;;5.40;3.40;;;;;;;7.81;44.72;100604.65;105811;1256;60849;-78
2023/05/07 01:11:07;;;;;;;7.20;3.70;;;;;;;7.79;44.75;100609.55;106201;1260;62726;-82
2023/05/07 01:13:37;;;;;;;5.20;3.20;;;;;;;7.78;44.66;100613.72;107372;1256;74929;-80
2023/05/07 01:16:05;;;;;;;7.00;3.90;;;;;;;7.78;44.72;100610.56;107980;1255;71288;-78
2023/05/07 01:18:31;;;;;;;6.00;3.00;;;;;;;7.78;44.80;100614.58;106449;1260;73201;-79
2023/05/07 01:21:00;;;;;;;5.80;3.20;;;;;;;7.78;44.81;100613.23;106105;1255;61258;-78
2023/05/07 01:23:27;;;;;;;5.00;3.00;;;;;;;7.77;44.74;100612.09;105703;1263;60451;-78
2023/05/07 01:25:54;;;;;;;5.60;3.40;;;;;;;7.75;44.85;100613.07;105587;1257;73539;-75
2023/05/07 01:28:22;;;;;;;4.40;3.20;;;;;;;7.73;45.05;100616.06;105565;1256;72360;-78
2023/05/07 01:31:03;;;;;;;6.70;3.40;;;;;;;7.73;45.06;100617.67;105625;1257;74959;-80
2023/05/07 01:33:33;;;;;;;4.40;3.00;;;;;;;7.73;44.90;100615.94;107667;1257;60452;-79
2023/05/07 01:36:02;;;;;;;5.00;3.10;;;;;;;7.73;44.76;100619.30;108382;1255;58425;-77
2023/05/07 01:38:29;;;;;;;5.60;3.20;;;;;;;7.74;44.82;100617.65;108180;1255;72645;-80
2023/05/07 01:40:56;;;;;;;5.20;3.30;;;;;;;7.74;44.84;100619.54;108509;1255;70750;-82
2023/05/07 01:43:23;;;;;;;4.90;3.00;;;;;;;7.75;44.85;100626.90;108496;1256;73569;-80
2023/05/07 01:45:50;;;;;;;3.90;2.90;;;;;;;7.75;44.83;100629.70;106248;1260;60413;-77
2023/05/07 01:48:17;;;;;;;5.30;3.50;;;;;;;7.75;44.77;100631.45;105869;1258;61135;-79
2023/05/07 01:50:44;;;;;;;5.40;3.20;;;;;;;7.75;44.77;100630.96;105637;1257;76225;-80
2023/05/07 01:53:11;;;;;;;4.80;3.50;;;;;;;7.75;44.76;100634.81;105628;1256;72425;-80
2023/05/07 01:55:38;;;;;;;5.20;2.80;;;;;;;7.75;44.80;100640.13;105608;1261;72199;-79
2023/05/07 01:58:05;;;;;;;5.00;3.00;;;;;;;7.74;44.57;100644.06;105875;1256;61587;-77
2023/05/07 02:00:32;;;;;;;6.70;3.00;;;;;;;7.73;44.52;100648.19;105755;1256;61121;-79
2023/05/07 02:02:59;;;;;;;7.50;3.20;;;;;;;7.72;44.68;100653.05;105489;1257;73348;-79
2023/05/07 02:05:34;;;;;;;5.30;2.70;;;;;;;7.72;44.81;100656.24;105487;1261;72801;-79
2023/05/07 02:08:07;;;;;;;5.60;3.30;;;;;;;7.72;44.66;100655.35;105488;1263;73873;-80
2023/05/07 02:10:34;;;;;;;4.60;3.10;;;;;;;7.71;44.71;100648.50;106883;1257;60399;-81
2023/05/07 02:13:01;;;;;;;5.00;3.30;;;;;;;7.72;44.87;100649.31;105940;1257;60464;-81
2023/05/07 02:15:28;;;;;;;5.80;3.00;;;;;;;7.71;44.87;100647.28;105618;1260;74524;-77
2023/05/07 02:18:07;;;;;;;5.70;3.20;;;;;;;7.72;44.90;100645.49;105900;1258;70928;-79
2023/05/07 02:20:34;;;;;;;5.30;3.30;;;;;;;7.69;45.00;100640.05;106064;1256;71284;-80
2023/05/07 02:23:01;;;;;;;6.00;2.80;;;;;;;7.68;45.11;100642.02;105711;1257;60345;-79
2023/05/07 02:25:29;;;;;;;5.80;3.20;;;;;;;7.67;45.16;100643.35;105897;1260;60848;-78
2023/05/07 02:27:57;;;;;;;5.20;3.60;;;;;;;7.66;45.03;100646.81;105874;1255;73927;-82
2023/05/07 02:30:32;;;;;;;6.40;2.90;;;;;;;7.65;45.02;100652.88;105794;1260;71589;-77
2023/05/07 02:33:00;;;;;;;4.90;3.40;;;;;;;7.64;45.10;100658.27;105818;1256;70941;-79
2023/05/07 02:35:27;;;;;;;6.20;2.90;;;;;;;7.63;45.29;100663.59;105868;1256;60407;-77
2023/05/07 02:37:54;;;;;;;4.10;3.00;;;;;;;7.63;45.22;100662.53;105633;1258;62546;-78
2023/05/07 02:40:22;;;;;;;5.20;3.10;;;;;;;7.64;45.24;100664.63;105700;1261;73005;-77
2023/05/07 02:42:50;;;;;;;6.50;3.50;;;;;;;7.65;45.33;100667.50;105714;1255;71173;-82
2023/05/07 02:45:17;;;;;;;4.80;3.10;;;;;;;7.66;45.99;100667.77;105915;1255;72577;-82
2023/05/07 02:47:45;;;;;;;4.60;3.00;;;;;;;7.67;46.38;100666.43;105831;1257;60966;-79
2023/05/07 02:50:12;;;;;;;5.00;3.30;;;;;;;7.69;46.49;100669.31;105730;1260;60859;-80
2023/05/07 02:52:39;;;;;;;6.40;3.40;;;;;;;7.70;46.16;100666.79;106135;1256;75831;-81
2023/05/07 02:55:07;;;;;;;6.50;2.80;;;;;;;7.70;45.99;100663.80;106471;1260;72271;-79
2023/05/07 02:57:34;;;;;;;6.00;3.00;;;;;;;7.70;45.86;100669.63;106267;1257;73695;-78
2023/05/07 03:00:13;;;;;;;4.30;3.30;;;;;;;7.70;46.21;100670.98;106272;1257;61696;-81
2023/05/07 03:02:44;;;;;;;6.40;3.40;;;;;;;7.69;46.27;100674.04;106480;1257;61353;-78
2023/05/07 03:05:12;;;;;;;6.30;3.50;;;;;;;7.71;46.01;100676.56;107190;1257;74653;-78
2023/05/07 03:07:39;;;;;;;7.50;3.20;;;;;;;7.71;46.31;100674.66;106541;1256;71514;-79
2023/05/07 03:10:06;;;;;;;4.90;3.20;;;;;;;7.71;46.06;100676.91;107063;1261;72050;-79
2023/05/07 03:12:33;;;;;;;3.80;2.70;;;;;;;7.71;46.11;100680.63;107774;1256;60702;-80
2023/05/07 03:15:00;;;;;;;4.70;3.20;;;;;;;7.73;46.02;100684.88;108063;1255;61152;-79
2023/05/07 03:17:27;;;;;;;8.10;2.90;;;;;;;7.75;46.05;100684.37;108216;1255;74822;-78
2023/05/07 03:19:54;;;;;;;4.10;3.10;;;;;;;7.76;46.01;100687.58;107509;1255;71425;-79
2023/05/07 03:22:21;;;;;;;7.20;3.20;;;;;;;7.78;45.94;100685.73;106817;1257;73330;-79
2023/05/07 03:24:48;;;;;;;5.40;3.00;;;;;;;7.79;45.91;100688.91;106555;1255;61689;-80
2023/05/07 03:27:15;;;;;;;6.20;3.10;;;;;;;7.82;45.95;100689.56;106471;1256;62043;-80
2023/05/07 03:29:42;;;;;;;8.10;3.30;;;;;;;7.84;46.12;100697.36;107120;1255;72292;-81
2023/05/07 03:32:09;;;;;;;4.20;2.90;;;;;;;7.84;46.33;100694.33;105716;1255;70465;-79
2023/05/07 03:34:37;;;;;;;4.40;3.20;;;;;;;7.86;46.29;100696.31;105980;1254;73549;-80
2023/05/07 03:37:04;;;;;;;6.10;3.00;;;;;;;7.87;46.78;100694.46;106055;1258;62069;-82
2023/05/07 03:39:31;;;;;;;6.20;3.10;;;;;;;7.87;46.75;100691.81;105833;1260;60461;-83
2023/05/07 03:41:59;;;;;;;4.00;2.80;;;;;;;7.88;46.54;100689.27;106575;1256;74591;-83
2023/05/07 03:44:26;;;;;;;7.60;2.90;;;;;;;7.90;46.27;100688.27;106379;1261;71390;-82
2023/05/07 03:46:53;;;;;;;8.00;3.40;;;;;;;7.91;46.48;100687.75;106250;1257;74981;-81
2023/05/07 03:49:20;;;;;;;3.90;2.70;;;;;;;7.94;46.42;100689.85;105972;1256;62075;-82
2023/05/07 03:51:47;;;;;;;5.50;3.40;;;;;;;7.97;46.57;100685.73;106990;1255;60394;-81
2023/05/07 03:54:14;;;;;;;4.10;2.80;;;;;;;7.99;46.17;100687.98;109171;1255;75227;-83
2023/05/07 03:56:43;;;;;;;5.40;3.10;;;;;;;8.02;46.00;100688.98;108856;1255;71546;-77
2023/05/07 03:59:10;;;;;;;5.70;3.20;;;;;;;8.06;45.71;100690.21;108771;1255;73601;-80
2023/05/07 04:01:36;;;;;;;7.40;3.00;;;;;;;8.09;45.54;100691.91;108783;1255;60498;-78
2023/05/07 04:04:04;;;;;;;4.20;2.90;;;;;;;8.13;45.47;100692.67;106599;1260;61779;-81
2023/05/07 04:06:32;;;;;;;4.70;3.20;;;;;;;8.16;45.52;100695.05;107832;1255;74325;-80
2023/05/07 04:08:59;;;;;;;4.10;2.70;;;;;;;8.19;45.37;100698.84;107141;1259;71371;-82
2023/05/07 04:11:27;;;;;;;4.10;2.70;;;;;;;8.21;45.48;100698.10;105561;1255;72476;-81
2023/05/07 04:13:55;;;;;;;6.90;2.80;;;;;;;8.23;45.10;100701.02;105704;1264;60536;-81
2023/05/07 04:16:22;;;;;;;5.90;2.50;;;;;;;8.20;44.46;100692.08;105895;1259;62006;-81
2023/05/07 04:18:49;;;;;;;5.80;2.70;;;;;;;8.19;44.39;100692.30;105628;1261;72886;-79
2023/05/07 04:21:17;;;;;;;5.60;2.70;;;;;;;8.20;44.19;100690.66;106031;1258;70933;-80
2023/05/07 04:23:47;;;;;;;5.60;2.90;;;;;;;8.21;44.15;100692.56;107265;1257;73649;-79
2023/05/07 04:26:14;;;;;;;5.30;3.20;;;;;;;8.22;44.05;100688.21;106972;1258;60503;-80
2023/05/07 04:28:43;;;;;;;5.80;3.10;;;;;;;8.22;43.96;100685.16;105726;1255;61192;-79
2023/05/07 04:31:10;;;;;;;6.20;2.70;;;;;;;8.24;43.87;100679.92;105593;1255;74658;-77
2023/05/07 04:33:38;;;;;;;5.50;3.30;;;;;;;8.25;43.81;100677.64;105621;1258;72369;-81
2023/05/07 04:36:06;;;;;;;4.30;2.90;;;;;;;8.24;43.79;100678.31;105575;1258;74100;-79
2023/05/07 04:38:38;;;;;;;5.10;2.60;;;;;;;8.24;43.83;100675.97;105871;1260;61003;-81
2023/05/07 04:41:06;;;;;;;5.60;3.00;;;;;;;8.26;43.88;100677.27;105897;1259;60669;-79
2023/05/07 04:43:36;;;;;;;4.40;3.20;;;;;;;8.25;43.81;100671.73;105585;1257;76122;-79
2023/05/07 04:46:03;;;;;;;5.80;2.90;;;;;;;8.25;44.06;100677.65;105432;1258;70642;-79
2023/05/07 04:48:30;;;;;;;4.10;2.90;;;;;;;8.27;44.23;100674.53;105543;1259;72886;-80
2023/05/07 04:50:57;;;;;;;4.60;2.90;;;;;;;8.26;44.23;100674.23;105564;1257;61587;-77
2023/05/07 04:53:24;;;;;;;5.00;2.90;;;;;;;8.24;44.30;100677.04;105369;1258;62687;-80
2023/05/07 04:55:56;;;;;;;4.40;2.80;;;;;;;8.21;44.41;100675.21;105487;1257;76049;-80
2023/05/07 04:58:25;;;;;;;7.00;3.30;;;;;;;8.17;44.52;100674.16;105432;1255;72233;-77
2023/05/07 05:00:52;;;;;;;6.90;3.30;;;;;;;8.11;44.77;100673.73;105532;1258;73767;-80
2023/05/07 05:03:19;;;;;;;4.00;2.70;;;;;;;8.04;45.08;100664.11;105525;1261;60481;-79
2023/05/07 05:05:46;;;;;;;7.10;3.30;;;;;;;8.01;45.33;100662.29;105662;1257;60647;-79
2023/05/07 05:08:13;;;;;;;7.30;3.10;;;;;;;7.99;45.30;100659.92;105569;1256;75815;-79
2023/05/07 05:10:42;;;;;;;5.00;3.10;;;;;;;8.00;45.41;100664.48;105690;1255;72202;-80
2023/05/07 05:13:12;;;;;;;5.00;3.40;;;;;;;8.02;45.62;100668.69;105817;1257;73808;-80
2023/05/07 05:15:41;;;;;;;5.10;3.50;;;;;;;8.04;45.85;100668.82;105735;1255;60539;-78
2023/05/07 05:18:08;;;;;;;7.20;4.40;;;;;;;8.11;46.09;100668.17;106158;1255;62448;-79
2023/05/07 05:20:35;;;;;;;7.50;4.20;;;;;;;8.16;46.01;100663.07;107412;1255;74694;-77
2023/05/07 05:23:02;;;;;;;6.20;4.70;;;;;;;8.21;46.21;100663.34;107094;1260;71457;-78
2023/05/07 05:25:30;;;;;;;8.30;4.90;;;;;;;8.26;46.07;100661.91;107318;1255;72802;-77
2023/05/07 05:27:58;;;;;;;9.10;5.10;;;;;;;8.28;45.74;100662.39;106720;1257;60423;-78
2023/05/07 05:30:25;;;;;;;8.00;4.60;;;;;;;8.26;45.72;100659.54;105737;1256;60970;-78
2023/05/07 05:32:52;;;;;;;7.60;5.10;;;;;;;8.30;45.92;100660.88;105952;1255;75375;-79
2023/05/07 05:35:19;;;;;;;6.50;3.80;;;;;;;8.40;45.90;100665.15;105532;1261;71220;-77
2023/05/07 05:37:47;;;;;;;6.70;4.40;;;;;;;8.51;45.66;100660.89;105511;1255;72751;-78
2023/05/07 05:40:15;;;;;;;8.90;3.80;;;;;;;8.59;45.36;100659.80;105670;1257;61386;-76
2023/05/07 05:42:42;;;;;;;5.90;4.00;;;;;;;8.69;45.50;100667.23;105634;1255;60562;-78
2023/05/07 05:45:10;;;;;;;11.00;3.90;;;;;;;8.80;45.49;100666.79;105775;1256;76007;-77
2023/05/07 05:47:39;;;;;;;5.60;3.90;;;;;;;8.89;44.91;100663.61;105764;1256;72358;-79
2023/05/07 05:50:07;;;;;;;5.70;3.70;;;;;;;8.94;44.25;100660.53;105523;1257;73609;-79
2023/05/07 05:52:34;;;;;;;5.20;3.70;;;;;;;8.97;44.13;100656.02;105759;1255;60590;-78
2023/05/07 05:55:03;;;;;;;5.40;3.80;;;;;;;9.01;44.22;100656.88;105531;1257;60345;-80
2023/05/07 05:57:30;;;;;;;5.90;3.80;;;;;;;9.06;44.42;100653.73;105581;1255;75804;-79
2023/05/07 05:59:57;;;;;;;5.20;3.80;;;;;;;9.13;44.49;100652.59;105465;1263;71303;-80
2023/05/07 06:02:24;;;;;;;5.40;3.20;;;;;;;9.19;44.59;100656.83;105530;1257;73849;-72
2023/05/07 06:04:52;;;;;;;6.80;3.70;;;;;;;9.27;44.35;100654.41;105553;1256;61464;-73
2023/05/07 06:07:19;;;;;;;4.90;3.50;;;;;;;9.32;44.17;100651.45;105745;1260;62536;-74
2023/05/07 06:09:46;;;;;;;6.60;3.30;;;;;;;9.35;43.96;100656.45;105570;1260;74971;-74
2023/05/07 06:12:14;;;;;;;6.10;3.40;;;;;;;9.39;44.10;100658.96;105625;1260;72030;-77
2023/05/07 06:14:44;;;;;;;6.80;3.20;;;;;;;9.44;44.03;100659.91;105320;1259;72733;-75
2023/05/07 06:17:12;;;;;;;5.50;3.50;;;;;;;9.49;43.86;100660.36;105438;1257;61308;-77
2023/05/07 06:19:39;;;;;;;5.70;3.70;;;;;;;9.55;43.67;100664.27;105540;1256;61029;-76
2023/05/07 06:22:07;;;;;;;6.30;3.70;;;;;;;9.59;43.31;100671.64;105653;1256;74988;-74
2023/05/07 06:24:34;;;;;;;5.20;2.80;;;;;;;9.62;42.73;100668.88;105660;1256;68772;-74
2023/05/07 06:27:01;;;;;;;6.20;3.50;;;;;;;9.63;42.79;100673.27;105522;1258;72168;-73
2023/05/07 06:29:31;;;;;;;3.40;2.70;;;;;;;9.62;42.51;100674.40;105673;1255;62777;-73
2023/05/07 06:32:12;;;;;;;4.90;3.20;;;;;;;9.64;42.84;100677.17;105665;1261;60958;-73
2023/05/07 06:34:40;;;;;;;4.70;2.50;;;;;;;9.68;42.82;100680.59;105733;1253;74577;-73
2023/05/07 06:37:07;;;;;;;3.80;2.70;;;;;;;9.71;42.81;100682.42;105700;1260;70390;-75
2023/05/07 06:39:46;;;;;;;4.00;2.50;;;;;;;9.75;42.23;100680.11;105594;1255;73070;-76
2023/05/07 06:42:13;;;;;;;3.40;2.70;;;;;;;9.78;42.19;100683.42;105582;1256;62491;-74
2023/05/07 06:44:41;;;;;;;5.80;2.90;;;;;;;9.80;42.34;100681.59;105703;1255;62548;-74
2023/05/07 06:47:10;;;;;;;6.00;2.70;;;;;;;9.86;42.41;100680.54;105624;1255;75937;-75
2023/05/07 06:49:41;;;;;;;4.00;2.70;;;;;;;9.95;42.21;100680.08;105609;1255;72399;-73
2023/05/07 06:52:08;;;;;;;4.60;2.40;;;;;;;10.02;41.97;100686.85;105653;1260;74045;-74
2023/05/07 06:54:35;;;;;;;5.30;3.00;;;;;;;10.06;41.51;100686.34;105592;1260;60612;-73
2023/05/07 06:57:02;;;;;;;4.40;2.40;;;;;;;10.03;41.45;100685.34;105555;1256;61382;-73
2023/05/07 06:59:29;;;;;;;4.50;2.60;;;;;;;10.01;41.40;100682.91;105555;1256;74108;-76
2023/05/07 07:01:56;;;;;;;3.90;2.30;;;;;;;10.03;41.36;100685.66;105642;1255;72570;-75
2023/05/07 07:04:24;;;;;;;4.20;2.60;;;;;;;10.08;41.30;100682.77;105451;1257;71113;-74
2023/05/07 07:06:58;;;;;;;4.00;3.10;;;;;;;10.16;41.46;100683.98;105600;1257;59904;-75
2023/05/07 07:09:25;;;;;;;3.10;2.10;;;;;;;10.22;40.82;100676.52;105712;1255;61175;-74
2023/05/07 07:11:52;;;;;;;4.20;2.10;;;;;;;10.25;40.83;100676.92;105683;1260;72613;-74
2023/05/07 07:14:20;;;;;;;4.40;1.90;;;;;;;10.32;40.70;100680.59;105632;1260;70607;-73
2023/05/07 07:16:49;;;;;;;3.90;2.10;;;;;;;10.38;40.47;100680.23;105679;1260;73594;-73
2023/05/07 07:19:17;;;;;;;4.00;2.20;;;;;;;10.41;39.76;100681.00;105656;1255;60723;-75
2023/05/07 07:21:46;;;;;;;2.10;1.80;;;;;;;10.37;39.83;100682.94;105451;1255;62320;-74
2023/05/07 07:24:18;;;;;;;2.30;1.70;;;;;;;10.31;39.88;100678.74;105771;1256;76011;-75
2023/05/07 07:26:47;;;;;;;3.10;2.20;;;;;;;10.27;39.95;100677.84;105662;1261;69118;-75
2023/05/07 07:29:14;;;;;;;3.40;2.30;;;;;;;10.23;40.09;100674.86;105484;1257;74853;-73
2023/05/07 07:31:42;;;;;;;4.20;1.90;;;;;;;10.24;40.01;100678.45;105576;1258;62352;-75
2023/05/07 07:34:09;;;;;;;5.20;2.70;;;;;;;10.29;40.14;100678.16;105666;1254;62346;-75
2023/05/07 07:36:36;;;;;;;3.00;2.20;;;;;;;10.36;40.11;100677.25;105432;1256;74611;-75
2023/05/07 07:39:14;;;;;;;2.40;1.80;;;;;;;10.48;39.72;100675.23;105465;1257;70009;-74
2023/05/07 07:41:41;;;;;;;3.70;2.50;;;;;;;10.60;39.42;100677.09;105619;1257;74897;-75
2023/05/07 07:44:12;;;;;;;4.50;3.10;;;;;;;10.73;39.37;100676.23;105637;1255;60493;-74
2023/05/07 07:46:43;;;;;;;3.70;2.30;;;;;;;10.88;38.99;100679.01;105728;1260;62246;-75
2023/05/07 07:49:10;;;;;;;3.10;2.10;;;;;;;11.03;38.21;100674.94;105644;1255;74959;-73
2023/05/07 07:51:37;;;;;;;2.60;1.80;;;;;;;11.15;37.96;100682.09;105627;1261;71578;-73
2023/05/07 07:54:04;;;;;;;2.10;1.80;;;;;;;11.20;37.55;100685.52;105617;1256;74867;-73
2023/05/07 07:56:33;;;;;;;5.00;1.90;;;;;;;11.21;37.68;100678.13;105585;1262;61151;-73
2023/05/07 07:59:01;;;;;;;4.60;1.50;;;;;;;11.22;37.79;100675.91;105666;1260;62235;-74
2023/05/07 08:01:29;;;;;;;2.10;1.40;;;;;;;11.28;37.92;100678.34;105530;1255;75884;-77
2023/05/07 08:03:58;;;;;;;2.20;1.80;;;;;;;11.36;37.43;100691.27;105678;1256;72731;-73
2023/05/07 08:06:26;;;;;;;5.70;2.00;;;;;;;11.34;36.93;100683.95;105738;1256;74773;-74
2023/05/07 08:08:54;;;;;;;3.60;1.40;;;;;;;11.33;37.15;100686.92;105543;1255;62670;-74
2023/05/07 08:11:21;;;;;;;3.20;1.70;;;;;;;11.32;36.60;100684.67;105551;1255;61224;-75
2023/05/07 08:13:49;;;;;;;2.30;1.90;;;;;;;11.28;36.48;100678.17;105542;1253;71977;-73
2023/05/07 08:16:16;;;;;;;3.60;1.80;;;;;;;11.23;36.49;100681.70;105591;1259;70108;-75
2023/05/07 08:18:43;;;;;;;3.30;1.70;;;;;;;11.18;36.78;100683.21;105551;1258;72774;-74
2023/05/07 08:21:10;;;;;;;3.30;1.90;;;;;;;11.19;36.97;100684.05;105515;1255;61430;-72
2023/05/07 08:23:38;;;;;;;4.30;1.70;;;;;;;11.25;37.25;100682.03;105623;1255;61931;-74
2023/05/07 08:28:39;;;;;;;2.20;1.80;;;;;;;11.41;36.71;100683.33;102852;1293;601114;-74
2023/05/07 08:31:07;;;;;;;7.10;1.80;;;;;;;11.41;36.34;100681.84;105446;1265;62491;-75
2023/05/07 08:33:36;;;;;;;1.70;1.40;;;;;;;11.38;36.52;100687.83;105310;1267;62435;-73
2023/05/07 08:36:04;;;;;;;3.00;1.80;;;;;;;11.36;36.40;100683.48;105324;1262;74745;-73
2023/05/07 08:38:31;;;;;;;4.70;2.00;;;;;;;11.37;36.40;100684.70;105186;1266;72388;-74
2023/05/07 08:40:58;;;;;;;2.40;1.70;;;;;;;11.38;36.12;100684.08;105240;1264;74458;-73
2023/05/07 08:43:26;;;;;;;3.40;2.10;;;;;;;11.39;36.01;100684.67;105310;1263;186117;-73
2023/05/07 08:45:54;;;;;;;2.10;1.50;;;;;;;11.38;36.04;100681.94;105320;1266;62319;-73
2023/05/07 08:48:25;;;;;;;2.10;1.60;;;;;;;11.38;35.91;100686.27;105323;1260;72186;-74
2023/05/07 08:50:58;;;;;;;2.30;2.00;;;;;;;11.39;36.06;100690.39;105491;1265;69804;-72
2023/05/07 08:53:25;;;;;;;5.20;2.20;;;;;;;11.41;36.05;100684.73;105573;1260;75165;-71
2023/05/07 08:55:53;;;;;;;4.20;1.70;;;;;;;11.40;36.18;100687.61;105511;1267;61354;-75
2023/05/07 08:58:20;;;;;;;2.30;1.40;;;;;;;11.38;36.19;100687.88;105359;1266;60560;-73
2023/05/07 09:00:48;;;;;;;5.30;1.80;;;;;;;11.31;36.29;100682.53;105233;1268;72929;-76
2023/05/07 09:03:15;;;;;;;5.60;1.90;;;;;;;11.27;36.45;100683.63;105287;1268;69188;-74
2023/05/07 09:05:45;;;;;;;3.40;1.90;;;;;;;11.25;36.39;100685.89;105317;1262;72509;-76
2023/05/07 09:08:14;;;;;;;2.40;2.00;;;;;;;11.27;36.34;100682.21;105359;1259;60385;-78
2023/05/07 09:10:42;;;;;;;2.40;1.80;;;;;;;11.27;36.43;100686.08;105713;1265;59621;-74
2023/05/07 09:13:10;;;;;;;2.10;1.60;;;;;;;11.27;36.62;100688.27;105579;1263;75029;-74
2023/05/07 09:15:38;;;;;;;2.80;1.80;;;;;;;11.26;36.53;100697.70;105875;1260;71279;-77
2023/05/07 09:18:05;;;;;;;2.40;1.70;;;;;;;11.24;36.57;100696.51;105799;1259;72493;-74
2023/05/07 09:20:32;;;;;;;3.80;3.10;;;;;;;11.22;36.48;100692.94;105910;1255;62476;-74
2023/05/07 09:23:00;;;;;;;2.80;2.00;;;;;;;11.26;36.90;100694.30;106002;1259;59699;-74
2023/05/07 09:25:28;;;;;;;4.10;2.20;;;;;;;11.33;36.81;100695.95;105848;1259;75020;-74
2023/05/07 09:27:56;;;;;;;3.10;2.30;;;;;;;11.36;36.86;100695.13;106019;1260;72376;-74
2023/05/07 09:30:26;;;;;;;4.40;1.90;;;;;;;11.38;36.95;100698.83;105835;1260;73382;-74
2023/05/07 09:32:54;;;;;;;2.50;1.80;;;;;;;11.38;36.75;100698.27;105511;1261;61618;-73
2023/05/07 09:35:24;;;;;;;4.20;2.10;;;;;;;11.32;36.65;100695.48;105823;1254;62420;-72
2023/05/07 09:37:55;;;;;;;2.10;1.70;;;;;;;11.29;36.74;100692.63;105855;1254;75302;-74
2023/05/07 09:40:27;;;;;;;2.60;1.80;;;;;;;11.28;37.01;100692.95;105874;1254;71751;-74
2023/05/07 09:42:54;;;;;;;4.00;1.90;;;;;;;11.28;36.74;100693.97;105652;1257;74297;-74
2023/05/07 09:45:26;;;;;;;2.80;2.50;;;;;;;11.26;36.72;100693.79;105744;1259;62528;-73
2023/05/07 09:47:57;;;;;;;3.90;2.40;;;;;;;11.23;36.57;100692.48;105762;1254;61271;-74
2023/05/07 09:50:30;;;;;;;3.30;1.60;;;;;;;11.18;36.40;100689.55;105958;1260;75061;-75
2023/05/07 09:52:57;;;;;;;3.90;1.60;;;;;;;11.21;36.61;100693.04;106279;1259;69078;-77
2023/05/07 09:55:24;;;;;;;3.30;1.70;;;;;;;11.25;36.70;100689.64;106849;1258;74805;-75
2023/05/07 09:57:52;;;;;;;2.90;1.90;;;;;;;11.28;36.63;100695.90;106239;1260;59650;-73
2023/05/07 10:00:21;;;;;;;3.80;2.20;;;;;;;11.34;36.77;100698.19;106049;1260;62023;-72
2023/05/07 10:02:51;;;;;;;3.40;1.80;;;;;;;11.40;36.72;100695.43;105598;1255;75274;-72
2023/05/07 10:05:22;;;;;;;2.70;1.70;;;;;;;11.44;36.10;100688.55;105798;1259;72383;-71
2023/05/07 10:07:50;;;;;;;3.30;1.90;;;;;;;11.43;36.19;100679.92;105972;1263;71529;-73
2023/05/07 10:10:17;;;;;;;1.90;1.60;;;;;;;11.48;35.94;100670.54;105722;1259;62324;-71
2023/05/07 10:12:45;;;;;;;4.80;1.80;;;;;;;11.56;35.88;100667.81;105802;1257;62166;-71
2023/05/07 10:15:16;;;;;;;2.40;1.50;;;;;;;11.63;36.30;100661.08;105794;1261;74346;-72
2023/05/07 10:17:46;;;;;;;8.50;3.20;;;;;;;11.71;35.84;100662.43;105844;1254;70874;-74
2023/05/07 10:20:14;;;;;;;3.40;2.10;;;;;;;11.79;35.63;100660.87;105809;1260;74668;-73
2023/05/07 10:22:44;;;;;;;2.60;1.90;;;;;;;11.84;35.35;100659.75;105835;1269;59519;-74
2023/05/07 10:25:21;;;;;;;5.50;1.90;;;;;;;11.86;35.18;100652.27;106148;1254;61696;-74
2023/05/07 10:27:49;;;;;;;3.40;2.10;;;;;;;11.92;35.17;100644.06;106065;1254;75365;-74
2023/05/07 10:30:30;;;;;;;2.50;1.80;;;;;;;12.01;35.23;100641.70;105793;1263;71040;-73
2023/05/07 10:33:05;;;;;;;2.60;1.50;;;;;;;12.06;35.04;100643.02;105761;1262;74818;-74
2023/05/07 10:35:40;;;;;;;3.60;2.00;;;;;;;12.11;35.42;100642.87;105904;1266;62765;-77
2023/05/07 10:38:07;;;;;;;2.20;1.80;;;;;;;12.22;35.30;100639.89;105925;1257;62285;-74
2023/05/07 10:40:36;;;;;;;3.00;1.80;;;;;;;12.32;35.17;100641.61;105924;1255;75177;-74
2023/05/07 10:43:07;;;;;;;10.00;2.50;;;;;;;12.36;34.98;100638.23;105948;1262;71485;-75
2023/05/07 10:46:14;;;;;;;3.60;2.10;;;;;;;12.45;35.12;100642.20;106296;1255;72479;-76
2023/05/07 10:49:08;;;;;;;3.70;1.60;;;;;;;12.44;34.69;100648.57;106389;1254;61117;-73
2023/05/07 10:52:15;;;;;;;3.80;1.40;;;;;;;12.35;34.46;100650.52;106279;1261;62306;-75
2023/05/07 10:55:24;;;;;;;2.40;1.80;;;;;;;12.25;34.59;100655.21;106394;1256;73839;-74
2023/05/07 10:58:26;;;;;;;4.70;1.80;;;;;;;12.20;34.73;100649.89;108838;1256;71201;-75
2023/05/07 11:01:12;;;;;;;2.90;1.40;;;;;;;12.23;34.81;100639.83;108980;1254;75213;-79
2023/05/07 11:04:12;;;;;;;4.50;1.70;;;;;;;12.26;34.73;100637.87;108597;1254;61141;-73
2023/05/07 11:06:40;;;;;;;1.90;1.60;;;;;;;12.30;34.86;100632.04;108433;1254;58403;-76
2023/05/07 11:09:09;;;;;;;3.30;2.10;;;;;;;12.37;34.78;100628.30;108612;1254;74185;-76
2023/05/07 11:11:56;;;;;;;4.40;1.80;;;;;;;12.46;34.69;100628.23;108516;1255;71399;-75
2023/05/07 11:14:45;;;;;;;2.30;1.70;;;;;;;12.58;34.91;100630.02;108602;1257;74442;-76
2023/05/07 11:17:20;;;;;;;2.10;1.50;;;;;;;12.70;34.28;100633.04;108422;1254;59653;-73
2023/05/07 11:19:54;;;;;;;4.60;2.10;;;;;;;12.67;34.16;100634.02;108220;1256;59058;-77
2023/05/07 11:22:57;;;;;;;3.90;2.10;;;;;;;12.64;34.28;100641.88;108753;1257;71976;-74
2023/05/07 11:25:34;;;;;;;3.10;1.60;;;;;;;12.63;34.44;100639.42;108972;1257;71612;-80
2023/05/07 11:28:17;;;;;;;3.40;1.90;;;;;;;12.63;34.16;100641.60;108861;1254;73614;-74
2023/05/07 11:30:50;;;;;;;5.70;1.70;;;;;;;12.59;33.93;100637.05;108700;1254;60458;-75
2023/05/07 11:33:17;;;;;;;5.30;1.60;;;;;;;12.52;33.90;100638.65;108945;1254;60939;-73
2023/05/07 11:35:45;;;;;;;3.30;1.80;;;;;;;12.49;33.91;100638.95;108726;1258;71990;-75